createdAt,value
2023-04-05T00:01:56.616Z,100.00
2023-04-05T00:04:25.277Z,100.00
2023-04-05T00:06:54.286Z,100.00
2023-04-05T00:09:22.644Z,100.00
2023-04-05T00:11:51.101Z,100.00
2023-04-05T00:14:19.455Z,100.00
2023-04-05T00:16:48.628Z,100.00
2023-04-05T00:19:17.488Z,100.00
2023-04-05T00:21:54.613Z,100.00
2023-04-05T00:24:23.261Z,100.00
2023-04-05T00:26:51.510Z,100.00
2023-04-05T00:29:19.795Z,100.00
2023-04-05T00:31:48.098Z,100.00
2023-04-05T00:34:16.850Z,100.00
2023-04-05T00:36:46.537Z,100.00
2023-04-05T00:39:14.952Z,100.00
2023-04-05T00:41:46.877Z,100.00
2023-04-05T00:44:17.764Z,100.00
2023-04-05T00:46:48.882Z,100.00
2023-04-05T00:49:17.918Z,100.00
2023-04-05T00:51:46.810Z,100.00
2023-04-05T00:54:15.982Z,100.00
2023-04-05T00:56:44.420Z,100.00
2023-04-05T00:59:12.719Z,100.00
2023-04-05T01:01:41.884Z,100.00
2023-04-05T01:04:11.938Z,100.00
2023-04-05T01:07:00.481Z,100.00
2023-04-05T01:09:38.748Z,100.00
2023-04-05T01:12:10.336Z,100.00
2023-04-05T01:14:50.862Z,100.00
2023-04-05T01:17:22.864Z,100.00
2023-04-05T01:19:54.510Z,100.00
2023-04-05T01:22:28.871Z,100.00
2023-04-05T01:25:06.912Z,100.00
2023-04-05T01:28:19.989Z,100.00
2023-04-05T01:30:54.543Z,100.00
2023-04-05T01:33:35.082Z,100.00
2023-04-05T01:36:39.935Z,100.00
2023-04-05T01:39:11.638Z,100.00
2023-04-05T01:41:40.798Z,100.00
2023-04-05T01:44:10.655Z,100.00
2023-04-05T01:46:39.364Z,100.00
2023-04-05T01:49:08.540Z,100.00
2023-04-05T01:51:42.237Z,100.00
2023-04-05T01:54:10.637Z,100.00
2023-04-05T01:56:38.977Z,100.00
2023-04-05T01:59:07.412Z,100.00
2023-04-05T02:01:36.274Z,100.00
2023-04-05T02:04:05.672Z,100.00
2023-04-05T02:06:42.392Z,100.00
2023-04-05T02:09:11.128Z,100.00
2023-04-05T02:11:39.561Z,100.00
2023-04-05T02:14:09.705Z,100.00
2023-04-05T02:16:38.596Z,100.00
2023-04-05T02:19:07.149Z,100.00
2023-04-05T02:21:37.952Z,100.00
2023-04-05T02:24:06.430Z,100.00
2023-04-05T02:26:34.708Z,100.00
2023-04-05T02:29:03.025Z,100.00
2023-04-05T02:31:31.361Z,100.00
2023-04-05T02:34:01.175Z,100.00
2023-04-05T02:36:30.003Z,100.00
2023-04-05T02:38:58.459Z,100.00
2023-04-05T02:41:29.862Z,100.00
2023-04-05T02:44:00.192Z,100.00
2023-04-05T02:46:30.660Z,100.00
2023-04-05T02:48:59.354Z,100.00
2023-04-05T02:51:28.762Z,100.00
2023-04-05T02:53:57.496Z,100.00
2023-04-05T02:56:26.807Z,100.00
2023-04-05T02:58:56.627Z,100.00
2023-04-05T03:01:26.911Z,100.00
2023-04-05T03:03:57.057Z,100.00
2023-04-05T03:06:26.769Z,100.00
2023-04-05T03:08:57.888Z,100.00
2023-04-05T03:11:26.677Z,100.00
2023-04-05T03:14:06.096Z,100.00
2023-04-05T03:16:41.757Z,100.00
2023-04-05T03:19:28.847Z,100.00
2023-04-05T03:22:02.622Z,100.00
2023-04-05T03:24:34.472Z,100.00
2023-04-05T03:27:06.278Z,100.00
2023-04-05T03:29:49.626Z,100.00
2023-04-05T03:32:18.896Z,100.00
2023-04-05T03:34:52.224Z,100.00
2023-04-05T03:37:21.103Z,100.00
2023-04-05T03:39:59.902Z,100.00
2023-04-05T03:42:28.171Z,100.00
2023-04-05T03:44:56.920Z,100.00
2023-04-05T03:47:28.154Z,100.00
2023-04-05T03:49:56.458Z,100.00
2023-04-05T03:52:24.773Z,100.00
2023-04-05T03:54:54.714Z,100.00
2023-04-05T03:57:24.622Z,100.00
2023-04-05T03:59:55.584Z,100.00
2023-04-05T04:02:25.115Z,100.00
2023-04-05T04:04:54.140Z,100.00
2023-04-05T04:07:22.420Z,100.00
2023-04-05T04:09:50.804Z,100.00
2023-04-05T04:12:19.084Z,100.00
2023-04-05T04:14:57.867Z,100.00
2023-04-05T04:17:39.932Z,100.00
2023-04-05T04:20:39.120Z,100.00
2023-04-05T04:23:18.831Z,100.00
2023-04-05T04:26:07.467Z,100.00
2023-04-05T04:28:56.937Z,100.00
2023-04-05T04:31:38.801Z,100.00
2023-04-05T04:34:26.714Z,100.00
2023-04-05T04:37:22.920Z,100.00
2023-04-05T04:40:09.118Z,100.00
2023-04-05T04:43:00.354Z,100.00
2023-04-05T04:45:55.027Z,100.00
2023-04-05T04:48:38.325Z,100.00
2023-04-05T04:51:33.932Z,100.00
2023-04-05T04:54:02.348Z,100.00
2023-04-05T04:56:31.592Z,100.00
2023-04-05T04:59:01.208Z,100.00
2023-04-05T05:01:34.299Z,100.00
2023-04-05T05:04:04.641Z,100.00
2023-04-05T05:06:37.890Z,100.00
2023-04-05T05:09:06.740Z,100.00
2023-04-05T05:11:41.130Z,100.00
2023-04-05T05:14:11.905Z,100.00
2023-04-05T05:16:40.248Z,100.00
2023-04-05T05:19:11.559Z,100.00
2023-04-05T05:21:47.198Z,100.00
2023-04-05T05:24:15.470Z,100.00
2023-04-05T05:26:43.897Z,100.00
2023-04-05T05:29:12.192Z,100.00
2023-04-05T05:31:43.775Z,100.00
2023-04-05T05:34:12.367Z,100.00
2023-04-05T05:36:44.014Z,100.00
2023-04-05T05:39:13.011Z,100.00
2023-04-05T05:41:41.260Z,100.00
2023-04-05T05:44:09.898Z,100.00
2023-04-05T05:46:40.755Z,100.00
2023-04-05T05:49:09.652Z,100.00
2023-04-05T05:51:37.946Z,100.00
2023-04-05T05:54:07.113Z,100.00
2023-04-05T05:56:35.372Z,100.00
2023-04-05T05:59:04.246Z,100.00
2023-04-05T06:01:34.608Z,100.00
2023-04-05T06:04:03.094Z,100.00
2023-04-05T06:06:35.110Z,100.00
2023-04-05T06:09:11.930Z,100.00
2023-04-05T06:11:53.146Z,100.00
2023-04-05T06:14:25.320Z,100.00
2023-04-05T06:16:53.887Z,100.00
2023-04-05T06:19:23.319Z,100.00
2023-04-05T06:21:51.620Z,100.00
2023-04-05T06:24:22.378Z,100.00
2023-04-05T06:26:52.142Z,100.00
2023-04-05T06:29:21.007Z,100.00
2023-04-05T06:31:49.577Z,100.00
2023-04-05T06:34:18.034Z,100.00
2023-04-05T06:36:47.816Z,100.00
2023-04-05T06:39:16.980Z,100.00
2023-04-05T06:41:45.626Z,100.00
2023-04-05T06:44:14.600Z,100.00
2023-04-05T06:46:42.997Z,100.00
2023-04-05T06:49:11.269Z,99.01
2023-04-05T06:51:39.834Z,98.33
2023-04-05T06:54:08.640Z,99.62
2023-04-05T06:56:39.298Z,99.83
2023-04-05T06:59:07.739Z,97.79
2023-04-05T07:01:37.574Z,95.62
2023-04-05T07:04:07.223Z,91.08
2023-04-05T07:06:39.244Z,89.96
2023-04-05T07:09:08.883Z,86.12
2023-04-05T07:11:40.111Z,84.39
2023-04-05T07:14:08.497Z,82.73
2023-04-05T07:16:41.766Z,82.18
2023-04-05T07:19:10.815Z,79.99
2023-04-05T07:21:39.117Z,78.53
2023-04-05T07:24:07.757Z,78.63
2023-04-05T07:26:37.608Z,78.33
2023-04-05T07:29:06.810Z,77.34
2023-04-05T07:31:35.669Z,76.23
2023-04-05T07:34:04.871Z,72.02
2023-04-05T07:36:35.907Z,70.23
2023-04-05T07:39:05.868Z,68.36
2023-04-05T07:41:38.349Z,66.11
2023-04-05T07:44:13.697Z,64.61
2023-04-05T07:46:47.566Z,63.97
2023-04-05T07:49:16.840Z,63.66
2023-04-05T07:51:48.282Z,63.97
2023-04-05T07:54:16.893Z,62.54
2023-04-05T07:56:52.413Z,62.87
2023-04-05T07:59:21.129Z,63.61
2023-04-05T08:01:49.889Z,63.87
2023-04-05T08:04:19.454Z,63.00
2023-04-05T08:06:48.187Z,61.15
2023-04-05T08:09:17.460Z,60.94
2023-04-05T08:11:48.958Z,60.97
2023-04-05T08:14:17.748Z,60.33
2023-04-05T08:16:46.295Z,59.78
2023-04-05T08:19:15.753Z,60.12
2023-04-05T08:21:44.281Z,59.33
2023-04-05T08:24:13.550Z,59.04
2023-04-05T08:26:43.546Z,59.26
2023-04-05T08:29:12.262Z,59.16
2023-04-05T08:31:41.025Z,59.42
2023-04-05T08:34:09.954Z,59.66
2023-04-05T08:36:38.257Z,59.61
2023-04-05T08:39:06.701Z,59.02
2023-04-05T08:41:37.581Z,59.01
2023-04-05T08:44:09.484Z,58.55
2023-04-05T08:46:38.484Z,58.76
2023-04-05T08:49:08.691Z,59.38
2023-04-05T08:51:41.057Z,59.45
2023-04-05T08:54:11.757Z,60.02
2023-04-05T08:56:42.533Z,60.59
2023-04-05T08:59:12.081Z,60.93
2023-04-05T09:01:45.473Z,60.23
2023-04-05T09:04:23.511Z,59.36
2023-04-05T09:06:55.870Z,59.18
2023-04-05T09:09:35.139Z,58.63
2023-04-05T09:12:08.195Z,58.56
2023-04-05T09:14:38.810Z,59.03
2023-04-05T09:17:10.319Z,58.82
2023-04-05T09:19:39.236Z,59.34
2023-04-05T09:22:08.840Z,59.88
2023-04-05T09:24:43.629Z,59.65
2023-04-05T09:27:14.436Z,58.60
2023-04-05T09:29:48.611Z,58.85
2023-04-05T09:32:19.485Z,58.93
2023-04-05T09:34:48.339Z,56.09
2023-04-05T09:37:23.712Z,55.47
2023-04-05T09:40:03.061Z,55.07
2023-04-05T09:42:47.386Z,54.71
2023-04-05T09:45:18.567Z,53.38
2023-04-05T09:48:03.152Z,52.57
2023-04-05T09:50:32.293Z,52.68
2023-04-05T09:53:16.422Z,52.72
2023-04-05T09:55:46.794Z,52.87
2023-04-05T09:58:22.474Z,52.82
2023-04-05T10:00:57.872Z,53.28
2023-04-05T10:03:32.816Z,53.02
2023-04-05T10:06:01.559Z,53.09
2023-04-05T10:08:33.493Z,52.92
2023-04-05T10:11:04.953Z,52.57
2023-04-05T10:13:34.731Z,52.44
2023-04-05T10:16:07.797Z,52.00
2023-04-05T10:18:44.596Z,51.62
2023-04-05T10:21:20.078Z,51.90
2023-04-05T10:23:59.177Z,50.69
2023-04-05T10:27:01.354Z,50.21
2023-04-05T10:29:50.957Z,49.30
2023-04-05T10:32:31.743Z,48.80
2023-04-05T10:35:16.404Z,48.87
2023-04-05T10:38:05.673Z,48.39
2023-04-05T10:40:36.469Z,47.55
2023-04-05T10:43:12.374Z,47.24
2023-04-05T10:45:43.055Z,46.77
2023-04-05T10:48:31.492Z,46.66
2023-04-05T10:51:04.650Z,46.26
2023-04-05T10:53:34.524Z,45.88
2023-04-05T10:56:04.250Z,46.29
2023-04-05T10:58:36.024Z,46.13
2023-04-05T11:01:05.232Z,45.98
2023-04-05T11:03:49.547Z,45.80
2023-04-05T11:06:38.422Z,45.68
2023-04-05T11:09:16.258Z,45.86
2023-04-05T11:11:46.917Z,45.61
2023-04-05T11:14:26.101Z,45.82
2023-04-05T11:16:59.975Z,45.93
2023-04-05T11:19:43.613Z,46.32
2023-04-05T11:22:15.187Z,46.50
2023-04-05T11:24:55.373Z,46.33
2023-04-05T11:27:31.155Z,46.18
2023-04-05T11:30:01.182Z,45.67
2023-04-05T11:32:44.570Z,45.41
2023-04-05T11:35:23.784Z,45.82
2023-04-05T11:38:01.337Z,45.41
2023-04-05T11:40:32.183Z,45.26
2023-04-05T11:43:08.055Z,45.04
2023-04-05T11:45:38.476Z,44.76
2023-04-05T11:48:12.175Z,44.43
2023-04-05T11:50:42.320Z,44.27
2023-04-05T11:53:17.957Z,44.26
2023-04-05T11:55:48.437Z,44.64
2023-04-05T11:58:21.629Z,44.43
2023-04-05T12:01:05.349Z,44.09
2023-04-05T12:03:37.574Z,44.13
2023-04-05T12:06:07.965Z,44.43
2023-04-05T12:08:50.298Z,44.97
2023-04-05T12:11:25.067Z,45.43
2023-04-05T12:13:58.873Z,44.91
2023-04-05T12:16:28.683Z,44.58
2023-04-05T12:18:59.695Z,45.02
2023-04-05T12:21:29.001Z,45.19
2023-04-05T12:23:59.158Z,45.74
2023-04-05T12:26:31.240Z,45.53
2023-04-05T12:29:04.562Z,45.36
2023-04-05T12:31:46.699Z,45.47
2023-04-05T12:34:15.426Z,46.01
2023-04-05T12:36:46.712Z,45.83
2023-04-05T12:39:17.458Z,45.87
2023-04-05T12:41:56.155Z,45.62
2023-04-05T12:44:31.704Z,45.86
2023-04-05T12:47:03.548Z,46.19
2023-04-05T12:49:38.288Z,45.81
2023-04-05T12:52:06.951Z,45.59
2023-04-05T12:54:35.748Z,45.49
2023-04-05T12:57:09.254Z,45.71
2023-04-05T12:59:38.956Z,45.88
2023-04-05T13:02:07.767Z,46.13
2023-04-05T13:04:36.095Z,46.31
2023-04-05T13:07:04.903Z,46.71
2023-04-05T13:09:35.509Z,47.05
2023-04-05T13:12:03.952Z,46.52
2023-04-05T13:14:34.044Z,46.64
2023-04-05T13:17:02.364Z,46.74
2023-04-05T13:19:31.155Z,47.20
2023-04-05T13:21:59.576Z,47.49
2023-04-05T13:24:27.916Z,47.75
2023-04-05T13:26:58.276Z,48.22
2023-04-05T13:29:26.594Z,48.02
2023-04-05T13:31:54.968Z,48.18
2023-04-05T13:34:23.970Z,48.34
2023-04-05T13:36:52.342Z,48.83
2023-04-05T13:39:21.969Z,49.41
2023-04-05T13:41:50.884Z,49.99
2023-04-05T13:44:19.480Z,50.30
2023-04-05T13:46:48.936Z,50.61
2023-04-05T13:49:17.281Z,50.75
2023-04-05T13:51:48.607Z,50.94
2023-04-05T13:54:18.088Z,51.26
2023-04-05T13:56:49.380Z,51.50
2023-04-05T13:59:19.705Z,51.72
2023-04-05T14:01:48.972Z,51.34
2023-04-05T14:04:17.848Z,51.21
2023-04-05T14:06:46.891Z,51.47
2023-04-05T14:09:15.690Z,51.66
2023-04-05T14:11:47.318Z,51.67
2023-04-05T14:14:15.773Z,51.89
2023-04-05T14:16:47.569Z,52.40
2023-04-05T14:19:18.543Z,53.07
2023-04-05T14:21:47.441Z,53.55
2023-04-05T14:24:22.038Z,54.39
2023-04-05T14:26:51.003Z,55.03
2023-04-05T14:29:19.789Z,55.76
2023-04-05T14:31:49.717Z,56.61
2023-04-05T14:34:19.332Z,57.93
2023-04-05T14:36:47.782Z,59.72
2023-04-05T14:39:16.888Z,61.76
2023-04-05T14:41:50.353Z,65.32
2023-04-05T14:44:18.731Z,70.66
2023-04-05T14:46:48.618Z,76.37
2023-04-05T14:49:18.723Z,84.27
2023-04-05T14:51:48.396Z,96.90
2023-04-05T14:54:17.133Z,100.00
2023-04-05T14:56:46.316Z,100.00
2023-04-05T14:59:14.678Z,100.00
2023-04-05T15:01:47.568Z,100.00
2023-04-05T15:04:15.912Z,100.00
2023-04-05T15:06:44.594Z,100.00
2023-04-05T15:09:12.871Z,100.00
2023-04-05T15:11:42.564Z,100.00
2023-04-05T15:14:18.241Z,100.00
2023-04-05T15:16:57.251Z,100.00
2023-04-05T15:19:26.055Z,100.00
2023-04-05T15:21:54.611Z,100.00
2023-04-05T15:24:23.024Z,100.00
2023-04-05T15:26:51.563Z,100.00
2023-04-05T15:29:20.026Z,100.00
2023-04-05T15:31:48.362Z,100.00
2023-04-05T15:34:17.457Z,100.00
2023-04-05T15:36:49.060Z,100.00
2023-04-05T15:39:17.923Z,100.00
2023-04-05T15:41:46.942Z,100.00
2023-04-05T15:44:15.625Z,100.00
2023-04-05T15:46:44.451Z,100.00
2023-04-05T15:49:14.157Z,100.00
2023-04-05T15:51:43.945Z,100.00
2023-04-05T15:54:18.799Z,100.00
2023-04-05T15:56:48.783Z,100.00
2023-04-05T15:59:17.455Z,100.00
2023-04-05T16:01:46.104Z,100.00
2023-04-05T16:04:14.993Z,100.00
2023-04-05T16:06:47.126Z,100.00
2023-04-05T16:09:15.494Z,100.00
2023-04-05T16:11:43.846Z,100.00
2023-04-05T16:14:13.350Z,100.00
2023-04-05T16:16:52.766Z,100.00
2023-04-05T16:19:24.882Z,100.00
2023-04-05T16:21:57.180Z,100.00
2023-04-05T16:24:27.837Z,100.00
2023-04-05T16:26:56.987Z,100.00
2023-04-05T16:29:25.882Z,100.00
2023-04-05T16:31:54.347Z,100.00
2023-04-05T16:34:23.305Z,100.00
2023-04-05T16:36:53.104Z,100.00
2023-04-05T16:39:21.436Z,100.00
2023-04-05T16:41:49.903Z,100.00
2023-04-05T16:44:18.879Z,100.00
2023-04-05T16:46:54.080Z,100.00
2023-04-05T16:49:22.781Z,100.00
2023-04-05T16:51:52.159Z,100.00
2023-04-05T16:54:21.657Z,100.00
2023-04-05T16:56:49.956Z,100.00
2023-04-05T16:59:18.309Z,100.00
2023-04-05T17:01:46.776Z,100.00
2023-04-05T17:04:16.830Z,100.00
2023-04-05T17:06:52.105Z,100.00
2023-04-05T17:09:23.294Z,100.00
2023-04-05T17:11:51.732Z,100.00
2023-04-05T17:14:24.346Z,100.00
2023-04-05T17:16:53.065Z,100.00
2023-04-05T17:19:21.508Z,100.00
2023-04-05T17:21:50.320Z,100.00
2023-04-05T17:24:18.728Z,100.00
2023-04-05T17:26:47.147Z,100.00
2023-04-05T17:29:17.775Z,100.00
2023-04-05T17:31:46.426Z,100.00
2023-04-05T17:34:16.837Z,100.00
2023-04-05T17:36:46.796Z,100.00
2023-04-05T17:39:16.521Z,100.00
2023-04-05T17:41:46.692Z,100.00
2023-04-05T17:44:15.847Z,100.00
2023-04-05T17:46:51.069Z,100.00
2023-04-05T17:49:22.581Z,100.00
2023-04-05T17:51:51.030Z,100.00
2023-04-05T17:54:19.430Z,100.00
2023-04-05T17:56:47.748Z,100.00
2023-04-05T17:59:16.191Z,100.00
2023-04-05T18:01:45.615Z,100.00
2023-04-05T18:04:15.188Z,100.00
2023-04-05T18:06:43.589Z,100.00
2023-04-05T18:09:12.647Z,100.00
2023-04-05T18:11:41.769Z,100.00
2023-04-05T18:14:10.488Z,100.00
2023-04-05T18:16:39.268Z,100.00
2023-04-05T18:19:08.573Z,100.00
2023-04-05T18:21:37.064Z,100.00
2023-04-05T18:24:07.402Z,100.00
2023-04-05T18:26:36.326Z,100.00
2023-04-05T18:29:05.426Z,100.00
2023-04-05T18:31:34.035Z,100.00
2023-04-05T18:34:06.148Z,100.00
2023-04-05T18:36:36.472Z,100.00
2023-04-05T18:39:05.462Z,100.00
2023-04-05T18:41:34.113Z,100.00
2023-04-05T18:44:02.485Z,100.00
2023-04-05T18:46:30.948Z,100.00
2023-04-05T18:48:59.785Z,100.00
2023-04-05T18:51:28.850Z,100.00
2023-04-05T18:53:58.837Z,100.00
2023-04-05T18:56:28.448Z,100.00
2023-04-05T18:58:56.956Z,100.00
2023-04-05T19:01:26.228Z,100.00
2023-04-05T19:03:54.665Z,100.00
2023-04-05T19:06:23.131Z,100.00
2023-04-05T19:08:52.947Z,100.00
2023-04-05T19:11:22.305Z,100.00
2023-04-05T19:13:51.037Z,100.00
2023-04-05T19:16:33.159Z,100.00
2023-04-05T19:19:06.731Z,100.00
2023-04-05T19:21:35.583Z,100.00
2023-04-05T19:24:04.744Z,100.00
2023-04-05T19:26:33.946Z,100.00
2023-04-05T19:29:03.727Z,100.00
2023-04-05T19:31:32.562Z,100.00
2023-04-05T19:34:01.645Z,100.00
2023-04-05T19:36:30.342Z,100.00
2023-04-05T19:38:58.738Z,100.00
2023-04-05T19:44:58.262Z,100.00
2023-04-05T19:47:26.926Z,100.00
2023-04-05T19:50:00.702Z,100.00
2023-04-05T19:52:48.115Z,100.00
2023-04-05T19:55:37.636Z,100.00
2023-04-05T19:58:10.601Z,100.00
2023-04-05T20:00:42.383Z,100.00
2023-04-05T20:03:32.969Z,100.00
2023-04-05T20:06:11.342Z,100.00
2023-04-05T20:08:43.112Z,100.00
2023-04-05T20:11:17.640Z,100.00
2023-04-05T20:13:56.591Z,100.00
2023-04-05T20:16:31.244Z,100.00
2023-04-05T20:19:06.951Z,100.00
2023-04-05T20:21:41.436Z,100.00
2023-04-05T20:24:14.636Z,100.00
2023-04-05T20:26:46.208Z,100.00
2023-04-05T20:29:17.231Z,100.00
2023-04-05T20:31:46.957Z,100.00
2023-04-05T20:34:19.988Z,100.00
2023-04-05T20:36:51.987Z,100.00
2023-04-05T20:39:23.729Z,100.00
2023-04-05T20:41:53.134Z,100.00
2023-04-05T20:44:25.310Z,100.00
2023-04-05T20:46:56.589Z,100.00
2023-04-05T20:49:28.300Z,100.00
2023-04-05T20:52:00.091Z,100.00
2023-04-05T20:54:28.469Z,100.00
2023-04-05T20:56:58.505Z,100.00
2023-04-05T20:59:27.556Z,100.00
2023-04-05T21:01:56.320Z,100.00
2023-04-05T21:04:25.031Z,100.00
2023-04-05T21:06:54.031Z,100.00
2023-04-05T21:09:23.720Z,100.00
2023-04-05T21:11:54.267Z,100.00
2023-04-05T21:14:22.512Z,100.00
2023-04-05T21:16:50.988Z,100.00
2023-04-05T21:19:19.390Z,100.00
2023-04-05T21:21:47.689Z,100.00
2023-04-05T21:24:16.217Z,100.00
2023-04-05T21:26:44.566Z,100.00
2023-04-05T21:29:14.647Z,100.00
2023-04-05T21:31:43.086Z,100.00
2023-04-05T21:34:11.582Z,100.00
2023-04-05T21:36:40.828Z,100.00
2023-04-05T21:39:10.014Z,100.00
2023-04-05T21:41:38.573Z,100.00
2023-04-05T21:44:09.261Z,100.00
2023-04-05T21:46:38.072Z,100.00
2023-04-05T21:49:06.607Z,100.00
2023-04-05T21:51:35.531Z,100.00
2023-04-05T21:54:03.840Z,100.00
2023-04-05T21:56:32.640Z,100.00
2023-04-05T21:59:01.276Z,100.00
2023-04-05T22:01:29.785Z,100.00
2023-04-05T22:03:59.192Z,100.00
2023-04-05T22:06:27.595Z,100.00
2023-04-05T22:08:56.270Z,100.00
2023-04-05T22:11:25.158Z,100.00
2023-04-05T22:13:55.038Z,100.00
2023-04-05T22:16:23.444Z,100.00
2023-04-05T22:18:52.097Z,100.00
2023-04-05T22:21:20.690Z,100.00
2023-04-05T22:23:49.228Z,100.00
2023-04-05T22:26:17.542Z,100.00
2023-04-05T22:28:46.339Z,100.00
2023-04-05T22:31:15.070Z,100.00
2023-04-05T22:33:45.748Z,100.00
2023-04-05T22:36:14.182Z,100.00
2023-04-05T22:38:43.940Z,100.00
2023-04-05T22:41:13.088Z,100.00
2023-04-05T22:43:42.193Z,100.00
2023-04-05T22:46:10.750Z,100.00
2023-04-05T22:48:39.030Z,100.00
2023-04-05T22:51:08.571Z,100.00
2023-04-05T22:53:37.181Z,100.00
2023-04-05T22:56:11.292Z,100.00
2023-04-05T22:58:41.100Z,100.00
2023-04-05T23:01:11.759Z,100.00
2023-04-05T23:03:40.190Z,100.00
2023-04-05T23:06:08.552Z,100.00
2023-04-05T23:08:37.158Z,100.00
2023-04-05T23:11:10.164Z,100.00
2023-04-05T23:13:39.642Z,100.00
2023-04-05T23:16:08.076Z,100.00
2023-04-05T23:18:39.873Z,100.00
2023-04-05T23:21:08.974Z,100.00
2023-04-05T23:23:37.622Z,100.00
2023-04-05T23:26:06.320Z,100.00
2023-04-05T23:28:34.946Z,100.00
2023-04-05T23:31:04.691Z,100.00
2023-04-05T23:33:33.927Z,100.00
2023-04-05T23:36:02.971Z,100.00
2023-04-05T23:38:31.841Z,100.00
2023-04-05T23:41:00.155Z,100.00
2023-04-05T23:43:28.881Z,100.00
2023-04-05T23:45:57.422Z,100.00
2023-04-05T23:48:29.229Z,100.00
2023-04-05T23:50:57.885Z,100.00
2023-04-05T23:53:26.493Z,100.00
2023-04-05T23:55:57.027Z,100.00
2023-04-05T23:58:25.791Z,100.00
